sensor_id;sensor_type;location;lat;lon;timestamp;pressure;altitude;pressure_sealevel;temperature;humidity
79690;BME280;69156;55.932;-3.238;2024-02-16T00:01:50;99673.74;;;11.09;100.00
79690;BME280;69156;55.932;-3.238;2024-02-16T00:04:14;99675.62;;;10.75;100.00
79690;BME280;69156;55.932;-3.238;2024-02-16T00:06:41;99681.64;;;10.82;100.00
79690;BME280;69156;55.932;-3.238;2024-02-16T00:09:06;99675.83;;;10.76;100.00
79690;BME280;69156;55.932;-3.238;2024-02-16T00:11:41;99676.81;;;10.81;100.00
79690;BME280;69156;55.932;-3.238;2024-02-16T00:13:58;99673.69;;;10.72;100.00
79690;BME280;69156;55.932;-3.238;2024-02-16T00:16:23;99675.85;;;10.55;100.00
79690;BME280;69156;55.932;-3.238;2024-02-16T00:18:53;99677.76;;;10.64;100.00
79690;BME280;69156;55.932;-3.238;2024-02-16T00:21:20;99681.14;;;10.49;100.00
79690;BME280;69156;55.932;-3.238;2024-02-16T00:23:46;99683.43;;;10.47;100.00
79690;BME280;69156;55.932;-3.238;2024-02-16T00:26:11;99689.63;;;10.47;100.00
79690;BME280;69156;55.932;-3.238;2024-02-16T00:28:37;99701.10;;;10.50;100.00
79690;BME280;69156;55.932;-3.238;2024-02-16T00:31:04;99704.31;;;10.42;100.00
79690;BME280;69156;55.932;-3.238;2024-02-16T00:33:28;99707.81;;;10.33;100.00
79690;BME280;69156;55.932;-3.238;2024-02-16T00:35:53;99713.78;;;10.45;100.00
79690;BME280;69156;55.932;-3.238;2024-02-16T00:38:20;99717.60;;;10.43;100.00
79690;BME280;69156;55.932;-3.238;2024-02-16T00:40:44;99717.46;;;10.47;100.00
79690;BME280;69156;55.932;-3.238;2024-02-16T00:43:09;99717.89;;;10.43;100.00
79690;BME280;69156;55.932;-3.238;2024-02-16T00:45:36;99718.92;;;10.54;100.00
79690;BME280;69156;55.932;-3.238;2024-02-16T00:48:05;99724.17;;;10.57;100.00
79690;BME280;69156;55.932;-3.238;2024-02-16T00:50:30;99726.38;;;10.57;100.00
79690;BME280;69156;55.932;-3.238;2024-02-16T00:52:56;99730.13;;;10.54;100.00
79690;BME280;69156;55.932;-3.238;2024-02-16T00:55:21;99730.08;;;10.53;100.00
79690;BME280;69156;55.932;-3.238;2024-02-16T00:57:47;99731.74;;;10.51;100.00
79690;BME280;69156;55.932;-3.238;2024-02-16T01:00:13;99733.63;;;10.49;100.00
79690;BME280;69156;55.932;-3.238;2024-02-16T01:02:40;99734.44;;;10.46;100.00
79690;BME280;69156;55.932;-3.238;2024-02-16T01:05:05;99736.06;;;10.53;100.00
79690;BME280;69156;55.932;-3.238;2024-02-16T01:07:31;99738.29;;;10.43;100.00
79690;BME280;69156;55.932;-3.238;2024-02-16T01:09:56;99737.02;;;10.45;100.00
79690;BME280;69156;55.932;-3.238;2024-02-16T01:12:23;99739.80;;;10.45;100.00
79690;BME280;69156;55.932;-3.238;2024-02-16T01:14:47;99743.01;;;10.25;100.00
79690;BME280;69156;55.932;-3.238;2024-02-16T01:17:13;99750.07;;;10.45;100.00
79690;BME280;69156;55.932;-3.238;2024-02-16T01:19:38;99752.22;;;10.44;100.00
79690;BME280;69156;55.932;-3.238;2024-02-16T01:22:04;99753.54;;;10.41;100.00
79690;BME280;69156;55.932;-3.238;2024-02-16T01:24:29;99752.49;;;10.41;100.00
79690;BME280;69156;55.932;-3.238;2024-02-16T01:26:55;99758.23;;;10.43;100.00
79690;BME280;69156;55.932;-3.238;2024-02-16T01:29:20;99753.82;;;10.41;100.00
79690;BME280;69156;55.932;-3.238;2024-02-16T01:31:46;99749.77;;;10.38;100.00
79690;BME280;69156;55.932;-3.238;2024-02-16T01:34:11;99756.16;;;10.39;100.00
79690;BME280;69156;55.932;-3.238;2024-02-16T01:36:36;99759.08;;;10.10;100.00
79690;BME280;69156;55.932;-3.238;2024-02-16T01:39:10;99758.38;;;10.27;100.00
79690;BME280;69156;55.932;-3.238;2024-02-16T01:41:39;99757.13;;;10.30;100.00
79690;BME280;69156;55.932;-3.238;2024-02-16T01:44:02;99761.79;;;10.19;100.00
79690;BME280;69156;55.932;-3.238;2024-02-16T01:46:34;99761.52;;;10.21;100.00
79690;BME280;69156;55.932;-3.238;2024-02-16T01:48:53;99758.49;;;10.17;100.00
79690;BME280;69156;55.932;-3.238;2024-02-16T01:51:18;99761.96;;;10.15;100.00
79690;BME280;69156;55.932;-3.238;2024-02-16T01:53:43;99764.05;;;10.11;100.00
79690;BME280;69156;55.932;-3.238;2024-02-16T01:56:14;99762.37;;;10.18;100.00
79690;BME280;69156;55.932;-3.238;2024-02-16T01:58:38;99763.38;;;10.09;100.00
79690;BME280;69156;55.932;-3.238;2024-02-16T02:01:07;99766.90;;;10.17;100.00
79690;BME280;69156;55.932;-3.238;2024-02-16T02:03:34;99765.09;;;10.17;100.00
79690;BME280;69156;55.932;-3.238;2024-02-16T02:05:58;99767.55;;;9.87;100.00
79690;BME280;69156;55.932;-3.238;2024-02-16T02:08:25;99769.92;;;9.99;100.00
79690;BME280;69156;55.932;-3.238;2024-02-16T02:10:51;99773.98;;;9.90;100.00
79690;BME280;69156;55.932;-3.238;2024-02-16T02:13:16;99774.99;;;9.77;100.00
79690;BME280;69156;55.932;-3.238;2024-02-16T02:15:43;99776.40;;;9.78;100.00
79690;BME280;69156;55.932;-3.238;2024-02-16T02:18:07;99778.66;;;9.67;100.00
79690;BME280;69156;55.932;-3.238;2024-02-16T02:20:33;99780.25;;;9.68;100.00
79690;BME280;69156;55.932;-3.238;2024-02-16T02:22:58;99777.21;;;9.86;100.00
79690;BME280;69156;55.932;-3.238;2024-02-16T02:25:26;99776.44;;;9.81;100.00
79690;BME280;69156;55.932;-3.238;2024-02-16T02:27:50;99779.94;;;9.76;100.00
79690;BME280;69156;55.932;-3.238;2024-02-16T02:30:14;99779.90;;;9.75;100.00
79690;BME280;69156;55.932;-3.238;2024-02-16T02:32:41;99782.41;;;9.71;100.00
79690;BME280;69156;55.932;-3.238;2024-02-16T02:35:09;99785.08;;;9.61;100.00
79690;BME280;69156;55.932;-3.238;2024-02-16T02:37:37;99786.77;;;9.58;100.00
79690;BME280;69156;55.932;-3.238;2024-02-16T02:39:58;99793.19;;;9.50;100.00
79690;BME280;69156;55.932;-3.238;2024-02-16T02:42:23;99794.17;;;9.54;100.00
79690;BME280;69156;55.932;-3.238;2024-02-16T02:44:48;99794.60;;;9.67;100.00
79690;BME280;69156;55.932;-3.238;2024-02-16T02:47:18;99794.54;;;9.56;100.00
79690;BME280;69156;55.932;-3.238;2024-02-16T02:49:42;99798.97;;;9.60;100.00
79690;BME280;69156;55.932;-3.238;2024-02-16T02:52:05;99802.67;;;9.49;100.00
79690;BME280;69156;55.932;-3.238;2024-02-16T02:54:31;99797.83;;;9.44;100.00
79690;BME280;69156;55.932;-3.238;2024-02-16T02:56:58;99802.05;;;9.58;100.00
79690;BME280;69156;55.932;-3.238;2024-02-16T02:59:24;99797.51;;;9.70;100.00
79690;BME280;69156;55.932;-3.238;2024-02-16T03:01:48;99796.02;;;9.62;100.00
79690;BME280;69156;55.932;-3.238;2024-02-16T03:04:14;99793.28;;;9.44;100.00
79690;BME280;69156;55.932;-3.238;2024-02-16T03:06:39;99795.92;;;9.59;100.00
79690;BME280;69156;55.932;-3.238;2024-02-16T03:09:07;99795.97;;;9.56;100.00
79690;BME280;69156;55.932;-3.238;2024-02-16T03:11:34;99800.02;;;9.59;100.00
79690;BME280;69156;55.932;-3.238;2024-02-16T03:13:58;99799.87;;;9.43;100.00
79690;BME280;69156;55.932;-3.238;2024-02-16T03:16:25;99803.19;;;9.43;100.00
79690;BME280;69156;55.932;-3.238;2024-02-16T03:18:52;99806.52;;;9.47;100.00
79690;BME280;69156;55.932;-3.238;2024-02-16T03:21:15;99805.60;;;9.41;100.00
79690;BME280;69156;55.932;-3.238;2024-02-16T03:23:40;99807.80;;;9.64;100.00
79690;BME280;69156;55.932;-3.238;2024-02-16T03:26:13;99805.83;;;9.62;100.00
79690;BME280;69156;55.932;-3.238;2024-02-16T03:28:32;99803.67;;;9.67;100.00
79690;BME280;69156;55.932;-3.238;2024-02-16T03:30:59;99803.76;;;9.66;100.00
79690;BME280;69156;55.932;-3.238;2024-02-16T03:33:23;99804.83;;;9.71;100.00
79690;BME280;69156;55.932;-3.238;2024-02-16T03:35:48;99802.91;;;9.87;100.00
79690;BME280;69156;55.932;-3.238;2024-02-16T03:38:14;99800.10;;;9.80;100.00
79690;BME280;69156;55.932;-3.238;2024-02-16T03:40:39;99799.81;;;9.92;100.00
79690;BME280;69156;55.932;-3.238;2024-02-16T03:43:06;99801.49;;;9.93;100.00
79690;BME280;69156;55.932;-3.238;2024-02-16T03:45:32;99802.50;;;9.78;100.00
79690;BME280;69156;55.932;-3.238;2024-02-16T03:47:56;99800.11;;;9.79;100.00
79690;BME280;69156;55.932;-3.238;2024-02-16T03:50:26;99803.90;;;10.03;100.00
79690;BME280;69156;55.932;-3.238;2024-02-16T03:52:50;99803.27;;;9.84;100.00
79690;BME280;69156;55.932;-3.238;2024-02-16T03:55:18;99804.15;;;10.08;100.00
79690;BME280;69156;55.932;-3.238;2024-02-16T03:57:45;99809.54;;;10.11;100.00
79690;BME280;69156;55.932;-3.238;2024-02-16T04:00:09;99809.72;;;9.93;100.00
79690;BME280;69156;55.932;-3.238;2024-02-16T04:02:34;99809.66;;;9.93;100.00
79690;BME280;69156;55.932;-3.238;2024-02-16T04:04:59;99812.71;;;9.89;100.00
79690;BME280;69156;55.932;-3.238;2024-02-16T04:07:26;99813.08;;;10.07;100.00
79690;BME280;69156;55.932;-3.238;2024-02-16T04:09:50;99815.75;;;9.99;100.00
79690;BME280;69156;55.932;-3.238;2024-02-16T04:12:16;99819.30;;;10.05;100.00
79690;BME280;69156;55.932;-3.238;2024-02-16T04:14:41;99822.96;;;10.11;100.00
79690;BME280;69156;55.932;-3.238;2024-02-16T04:17:09;99824.43;;;10.17;100.00
79690;BME280;69156;55.932;-3.238;2024-02-16T04:19:33;99825.85;;;10.04;100.00
79690;BME280;69156;55.932;-3.238;2024-02-16T04:21:58;99829.89;;;9.95;100.00
79690;BME280;69156;55.932;-3.238;2024-02-16T04:24:24;99834.54;;;9.99;100.00
79690;BME280;69156;55.932;-3.238;2024-02-16T04:26:49;99840.22;;;10.03;100.00
79690;BME280;69156;55.932;-3.238;2024-02-16T04:29:15;99841.52;;;10.02;100.00
79690;BME280;69156;55.932;-3.238;2024-02-16T04:31:41;99846.02;;;10.01;100.00
79690;BME280;69156;55.932;-3.238;2024-02-16T04:34:09;99846.55;;;10.19;100.00
79690;BME280;69156;55.932;-3.238;2024-02-16T04:36:35;99851.57;;;10.14;100.00
79690;BME280;69156;55.932;-3.238;2024-02-16T04:39:01;99855.34;;;10.22;100.00
79690;BME280;69156;55.932;-3.238;2024-02-16T04:41:28;99856.65;;;10.22;100.00
79690;BME280;69156;55.932;-3.238;2024-02-16T04:43:51;99861.96;;;10.14;100.00
79690;BME280;69156;55.932;-3.238;2024-02-16T04:46:16;99863.35;;;10.22;100.00
79690;BME280;69156;55.932;-3.238;2024-02-16T04:48:42;99867.84;;;10.19;100.00
79690;BME280;69156;55.932;-3.238;2024-02-16T04:51:07;99870.93;;;10.09;100.00
79690;BME280;69156;55.932;-3.238;2024-02-16T04:54:37;99874.18;;;10.10;100.00
79690;BME280;69156;55.932;-3.238;2024-02-16T04:56:15;99872.11;;;10.22;100.00
79690;BME280;69156;55.932;-3.238;2024-02-16T04:58:24;99872.04;;;10.04;100.00
79690;BME280;69156;55.932;-3.238;2024-02-16T05:00:48;99874.03;;;10.14;100.00
79690;BME280;69156;55.932;-3.238;2024-02-16T05:03:15;99875.65;;;10.15;100.00
79690;BME280;69156;55.932;-3.238;2024-02-16T05:05:41;99877.49;;;10.13;100.00
79690;BME280;69156;55.932;-3.238;2024-02-16T05:08:06;99882.97;;;10.08;100.00
79690;BME280;69156;55.932;-3.238;2024-02-16T05:10:31;99882.66;;;9.98;100.00
79690;BME280;69156;55.932;-3.238;2024-02-16T05:12:59;99886.18;;;9.93;100.00
79690;BME280;69156;55.932;-3.238;2024-02-16T05:15:23;99883.95;;;9.77;100.00
79690;BME280;69156;55.932;-3.238;2024-02-16T05:17:49;99891.80;;;9.84;100.00
79690;BME280;69156;55.932;-3.238;2024-02-16T05:20:15;99896.72;;;9.89;100.00
79690;BME280;69156;55.932;-3.238;2024-02-16T05:22:43;99899.73;;;9.94;100.00
79690;BME280;69156;55.932;-3.238;2024-02-16T05:25:09;99906.44;;;9.79;100.00
79690;BME280;69156;55.932;-3.238;2024-02-16T05:27:38;99907.94;;;9.90;100.00
79690;BME280;69156;55.932;-3.238;2024-02-16T05:30:08;99912.94;;;9.85;100.00
79690;BME280;69156;55.932;-3.238;2024-02-16T05:32:31;99916.74;;;9.79;100.00
79690;BME280;69156;55.932;-3.238;2024-02-16T05:34:55;99918.24;;;10.02;100.00
79690;BME280;69156;55.932;-3.238;2024-02-16T05:37:21;99922.00;;;9.88;100.00
79690;BME280;69156;55.932;-3.238;2024-02-16T05:39:46;99925.17;;;9.81;100.00
79690;BME280;69156;55.932;-3.238;2024-02-16T05:42:13;99928.07;;;9.93;100.00
79690;BME280;69156;55.932;-3.238;2024-02-16T05:44:38;99932.03;;;9.86;100.00
79690;BME280;69156;55.932;-3.238;2024-02-16T05:47:12;99938.32;;;9.98;100.00
79690;BME280;69156;55.932;-3.238;2024-02-16T05:49:31;99940.60;;;10.00;100.00
79690;BME280;69156;55.932;-3.238;2024-02-16T05:51:57;99941.81;;;9.88;100.00
79690;BME280;69156;55.932;-3.238;2024-02-16T05:54:21;99943.61;;;9.92;100.00
79690;BME280;69156;55.932;-3.238;2024-02-16T05:56:47;99949.69;;;9.87;100.00
79690;BME280;69156;55.932;-3.238;2024-02-16T05:59:12;99951.84;;;9.91;100.00
79690;BME280;69156;55.932;-3.238;2024-02-16T06:01:37;99954.60;;;9.90;100.00
79690;BME280;69156;55.932;-3.238;2024-02-16T06:04:05;99959.80;;;9.81;100.00
79690;BME280;69156;55.932;-3.238;2024-02-16T06:06:32;99958.01;;;9.61;100.00
79690;BME280;69156;55.932;-3.238;2024-02-16T06:08:57;99963.17;;;9.72;100.00
79690;BME280;69156;55.932;-3.238;2024-02-16T06:11:24;99964.11;;;9.77;100.00
79690;BME280;69156;55.932;-3.238;2024-02-16T06:13:50;99962.39;;;9.68;100.00
79690;BME280;69156;55.932;-3.238;2024-02-16T06:16:19;99974.04;;;9.61;100.00
79690;BME280;69156;55.932;-3.238;2024-02-16T06:18:47;99977.36;;;9.67;100.00
79690;BME280;69156;55.932;-3.238;2024-02-16T06:21:11;99975.62;;;9.49;100.00
79690;BME280;69156;55.932;-3.238;2024-02-16T06:23:37;99975.11;;;9.50;100.00
79690;BME280;69156;55.932;-3.238;2024-02-16T06:26:05;99974.43;;;9.47;100.00
79690;BME280;69156;55.932;-3.238;2024-02-16T06:28:28;99979.13;;;9.34;100.00
79690;BME280;69156;55.932;-3.238;2024-02-16T06:30:54;99975.17;;;9.47;100.00
79690;BME280;69156;55.932;-3.238;2024-02-16T06:33:19;99978.14;;;9.41;100.00
79690;BME280;69156;55.932;-3.238;2024-02-16T06:35:45;99980.32;;;9.35;100.00
79690;BME280;69156;55.932;-3.238;2024-02-16T06:38:13;99988.30;;;9.35;100.00
79690;BME280;69156;55.932;-3.238;2024-02-16T06:40:42;99987.71;;;9.40;100.00
79690;BME280;69156;55.932;-3.238;2024-02-16T06:43:06;99985.90;;;9.33;100.00
79690;BME280;69156;55.932;-3.238;2024-02-16T06:45:31;99991.43;;;9.28;100.00
79690;BME280;69156;55.932;-3.238;2024-02-16T06:47:55;99998.07;;;9.34;100.00
79690;BME280;69156;55.932;-3.238;2024-02-16T06:50:22;100000.33;;;9.34;100.00
79690;BME280;69156;55.932;-3.238;2024-02-16T06:52:49;99999.30;;;9.30;100.00
79690;BME280;69156;55.932;-3.238;2024-02-16T06:55:15;100005.91;;;9.31;100.00
79690;BME280;69156;55.932;-3.238;2024-02-16T06:57:39;100009.30;;;9.27;100.00
79690;BME280;69156;55.932;-3.238;2024-02-16T07:00:06;100014.10;;;9.29;100.00
79690;BME280;69156;55.932;-3.238;2024-02-16T07:02:30;100021.81;;;9.22;100.00
79690;BME280;69156;55.932;-3.238;2024-02-16T07:04:57;100024.47;;;9.30;100.00
79690;BME280;69156;55.932;-3.238;2024-02-16T07:07:21;100028.22;;;9.23;100.00
79690;BME280;69156;55.932;-3.238;2024-02-16T07:09:47;100031.65;;;9.20;100.00
79690;BME280;69156;55.932;-3.238;2024-02-16T07:12:13;100037.92;;;9.22;100.00
79690;BME280;69156;55.932;-3.238;2024-02-16T07:14:38;100040.14;;;9.27;100.00
79690;BME280;69156;55.932;-3.238;2024-02-16T07:17:06;100043.65;;;9.26;100.00
79690;BME280;69156;55.932;-3.238;2024-02-16T07:19:30;100042.30;;;9.25;100.00
79690;BME280;69156;55.932;-3.238;2024-02-16T07:21:55;100039.95;;;9.22;100.00
79690;BME280;69156;55.932;-3.238;2024-02-16T07:24:21;100041.10;;;9.17;100.00
79690;BME280;69156;55.932;-3.238;2024-02-16T07:26:46;100049.42;;;9.19;100.00
79690;BME280;69156;55.932;-3.238;2024-02-16T07:29:12;100050.86;;;9.10;100.00
79690;BME280;69156;55.932;-3.238;2024-02-16T07:31:36;100057.13;;;9.10;100.00
79690;BME280;69156;55.932;-3.238;2024-02-16T07:34:17;100062.68;;;9.25;100.00
79690;BME280;69156;55.932;-3.238;2024-02-16T07:36:43;100067.24;;;9.03;100.00
79690;BME280;69156;55.932;-3.238;2024-02-16T07:39:08;100072.01;;;9.15;100.00
79690;BME280;69156;55.932;-3.238;2024-02-16T07:41:36;100080.61;;;9.12;100.00
79690;BME280;69156;55.932;-3.238;2024-02-16T07:44:01;100085.67;;;9.04;100.00
79690;BME280;69156;55.932;-3.238;2024-02-16T07:46:26;100090.18;;;9.02;100.00
79690;BME280;69156;55.932;-3.238;2024-02-16T07:48:53;100098.94;;;8.95;100.00
79690;BME280;69156;55.932;-3.238;2024-02-16T07:51:19;100107.88;;;9.02;100.00
79690;BME280;69156;55.932;-3.238;2024-02-16T07:53:48;100118.91;;;9.08;100.00
79690;BME280;69156;55.932;-3.238;2024-02-16T07:56:13;100120.92;;;9.10;100.00
79690;BME280;69156;55.932;-3.238;2024-02-16T07:58:42;100126.90;;;9.04;100.00
79690;BME280;69156;55.932;-3.238;2024-02-16T08:01:05;100132.28;;;9.12;100.00
79690;BME280;69156;55.932;-3.238;2024-02-16T08:03:30;100139.82;;;9.09;100.00
79690;BME280;69156;55.932;-3.238;2024-02-16T08:05:59;100142.98;;;8.96;100.00
79690;BME280;69156;55.932;-3.238;2024-02-16T08:08:23;100147.61;;;8.95;100.00
79690;BME280;69156;55.932;-3.238;2024-02-16T08:10:52;100153.10;;;9.08;100.00
79690;BME280;69156;55.932;-3.238;2024-02-16T08:13:17;100159.29;;;9.04;100.00
79690;BME280;69156;55.932;-3.238;2024-02-16T08:15:41;100162.32;;;9.13;100.00
79690;BME280;69156;55.932;-3.238;2024-02-16T08:18:06;100167.00;;;9.16;100.00
79690;BME280;69156;55.932;-3.238;2024-02-16T08:20:35;100177.53;;;9.09;100.00
79690;BME280;69156;55.932;-3.238;2024-02-16T08:22:58;100186.56;;;9.29;100.00
79690;BME280;69156;55.932;-3.238;2024-02-16T08:25:22;100191.82;;;9.19;100.00
79690;BME280;69156;55.932;-3.238;2024-02-16T08:27:47;100193.02;;;9.21;100.00
79690;BME280;69156;55.932;-3.238;2024-02-16T08:30:13;100195.34;;;9.14;100.00
79690;BME280;69156;55.932;-3.238;2024-02-16T08:32:42;100199.32;;;9.18;100.00
79690;BME280;69156;55.932;-3.238;2024-02-16T08:35:06;100203.84;;;9.24;100.00
79690;BME280;69156;55.932;-3.238;2024-02-16T08:37:31;100207.51;;;9.19;100.00
79690;BME280;69156;55.932;-3.238;2024-02-16T08:40:02;100209.06;;;9.20;100.00
79690;BME280;69156;55.932;-3.238;2024-02-16T08:42:22;100212.90;;;9.26;100.00
79690;BME280;69156;55.932;-3.238;2024-02-16T08:44:48;100219.14;;;9.28;100.00
79690;BME280;69156;55.932;-3.238;2024-02-16T08:47:13;100222.94;;;9.37;100.00
79690;BME280;69156;55.932;-3.238;2024-02-16T08:49:37;100226.41;;;9.35;100.00
79690;BME280;69156;55.932;-3.238;2024-02-16T08:52:05;100233.47;;;9.31;100.00
79690;BME280;69156;55.932;-3.238;2024-02-16T08:54:29;100235.84;;;9.36;100.00
79690;BME280;69156;55.932;-3.238;2024-02-16T08:56:54;100236.87;;;9.35;100.00
79690;BME280;69156;55.932;-3.238;2024-02-16T08:59:20;100242.03;;;9.31;100.00
79690;BME280;69156;55.932;-3.238;2024-02-16T09:01:45;100242.85;;;9.37;100.00
79690;BME280;69156;55.932;-3.238;2024-02-16T09:04:10;100239.70;;;9.24;100.00
79690;BME280;69156;55.932;-3.238;2024-02-16T09:06:35;100237.22;;;9.21;100.00
79690;BME280;69156;55.932;-3.238;2024-02-16T09:09:04;100242.86;;;9.23;100.00
79690;BME280;69156;55.932;-3.238;2024-02-16T09:11:28;100248.46;;;9.40;100.00
79690;BME280;69156;55.932;-3.238;2024-02-16T09:13:53;100251.27;;;9.26;100.00
79690;BME280;69156;55.932;-3.238;2024-02-16T09:16:17;100255.84;;;9.22;100.00
79690;BME280;69156;55.932;-3.238;2024-02-16T09:18:45;100255.04;;;9.30;100.00
79690;BME280;69156;55.932;-3.238;2024-02-16T09:21:10;100258.85;;;9.31;100.00
79690;BME280;69156;55.932;-3.238;2024-02-16T09:23:37;100258.48;;;9.29;100.00
79690;BME280;69156;55.932;-3.238;2024-02-16T09:26:02;100259.77;;;9.30;100.00
79690;BME280;69156;55.932;-3.238;2024-02-16T09:28:27;100262.84;;;9.40;100.00
79690;BME280;69156;55.932;-3.238;2024-02-16T09:30:51;100265.85;;;9.37;100.00
79690;BME280;69156;55.932;-3.238;2024-02-16T09:33:16;100276.09;;;9.33;100.00
79690;BME280;69156;55.932;-3.238;2024-02-16T09:35:43;100278.84;;;9.37;100.00
79690;BME280;69156;55.932;-3.238;2024-02-16T09:38:08;100284.30;;;9.40;100.00
79690;BME280;69156;55.932;-3.238;2024-02-16T09:40:43;100286.48;;;9.48;100.00
79690;BME280;69156;55.932;-3.238;2024-02-16T09:42:58;100289.14;;;9.56;100.00
79690;BME280;69156;55.932;-3.238;2024-02-16T09:45:23;100290.09;;;9.56;100.00
79690;BME280;69156;55.932;-3.238;2024-02-16T09:47:50;100295.39;;;9.51;100.00
79690;BME280;69156;55.932;-3.238;2024-02-16T09:50:19;100296.78;;;9.67;100.00
79690;BME280;69156;55.932;-3.238;2024-02-16T09:52:47;100303.88;;;9.50;100.00
79690;BME280;69156;55.932;-3.238;2024-02-16T09:55:12;100306.64;;;9.62;100.00
79690;BME280;69156;55.932;-3.238;2024-02-16T09:57:37;100306.69;;;9.53;100.00
79690;BME280;69156;55.932;-3.238;2024-02-16T10:00:01;100311.79;;;9.54;100.00
79690;BME280;69156;55.932;-3.238;2024-02-16T10:02:27;100322.00;;;9.53;100.00
79690;BME280;69156;55.932;-3.238;2024-02-16T10:04:52;100329.22;;;9.64;100.00
79690;BME280;69156;55.932;-3.238;2024-02-16T10:07:18;100326.87;;;9.70;100.00
79690;BME280;69156;55.932;-3.238;2024-02-16T10:09:44;100334.35;;;9.74;100.00
79690;BME280;69156;55.932;-3.238;2024-02-16T10:12:09;100337.21;;;9.91;100.00
79690;BME280;69156;55.932;-3.238;2024-02-16T10:14:36;100342.66;;;9.59;100.00
79690;BME280;69156;55.932;-3.238;2024-02-16T10:17:02;100348.90;;;9.82;100.00
79690;BME280;69156;55.932;-3.238;2024-02-16T10:19:30;100349.59;;;9.92;100.00
79690;BME280;69156;55.932;-3.238;2024-02-16T10:22:04;100355.10;;;10.04;100.00
79690;BME280;69156;55.932;-3.238;2024-02-16T10:24:22;100355.72;;;9.94;100.00
79690;BME280;69156;55.932;-3.238;2024-02-16T10:26:45;100364.80;;;9.95;100.00
79690;BME280;69156;55.932;-3.238;2024-02-16T10:29:11;100364.94;;;10.03;100.00
79690;BME280;69156;55.932;-3.238;2024-02-16T10:31:35;100371.26;;;9.98;100.00
79690;BME280;69156;55.932;-3.238;2024-02-16T10:34:02;100379.53;;;9.86;100.00
79690;BME280;69156;55.932;-3.238;2024-02-16T10:36:26;100380.05;;;9.91;100.00
79690;BME280;69156;55.932;-3.238;2024-02-16T10:38:52;100387.71;;;9.90;100.00
79690;BME280;69156;55.932;-3.238;2024-02-16T10:41:22;100396.04;;;10.14;100.00
79690;BME280;69156;55.932;-3.238;2024-02-16T10:43:45;100394.93;;;9.96;100.00
79690;BME280;69156;55.932;-3.238;2024-02-16T10:46:10;100405.57;;;10.06;100.00
79690;BME280;69156;55.932;-3.238;2024-02-16T10:48:35;100410.88;;;9.99;100.00
79690;BME280;69156;55.932;-3.238;2024-02-16T10:51:00;100413.53;;;10.05;100.00
79690;BME280;69156;55.932;-3.238;2024-02-16T10:53:27;100416.05;;;10.02;100.00
79690;BME280;69156;55.932;-3.238;2024-02-16T10:55:51;100419.75;;;10.08;100.00
79690;BME280;69156;55.932;-3.238;2024-02-16T10:58:17;100422.97;;;10.10;100.00
79690;BME280;69156;55.932;-3.238;2024-02-16T11:01:15;100424.66;;;10.01;100.00
79690;BME280;69156;55.932;-3.238;2024-02-16T11:03:08;100429.77;;;10.23;100.00
79690;BME280;69156;55.932;-3.238;2024-02-16T11:05:34;100432.61;;;10.08;100.00
79690;BME280;69156;55.932;-3.238;2024-02-16T11:08:02;100438.92;;;10.12;100.00
79690;BME280;69156;55.932;-3.238;2024-02-16T11:10:25;100439.02;;;10.23;100.00
79690;BME280;69156;55.932;-3.238;2024-02-16T11:12:50;100444.18;;;10.34;100.00
79690;BME280;69156;55.932;-3.238;2024-02-16T11:15:17;100447.49;;;10.36;100.00
79690;BME280;69156;55.932;-3.238;2024-02-16T11:17:57;100451.94;;;10.31;100.00
79690;BME280;69156;55.932;-3.238;2024-02-16T11:20:13;100447.79;;;10.58;100.00
79690;BME280;69156;55.932;-3.238;2024-02-16T11:22:52;100446.19;;;10.49;100.00
79690;BME280;69156;55.932;-3.238;2024-02-16T11:25:10;100446.96;;;10.34;100.00
79690;BME280;69156;55.932;-3.238;2024-02-16T11:27:36;100449.92;;;10.38;100.00
79690;BME280;69156;55.932;-3.238;2024-02-16T11:30:04;100453.90;;;10.48;100.00
79690;BME280;69156;55.932;-3.238;2024-02-16T11:32:28;100452.71;;;10.46;100.00
79690;BME280;69156;55.932;-3.238;2024-02-16T11:34:53;100453.67;;;10.60;100.00
79690;BME280;69156;55.932;-3.238;2024-02-16T11:37:18;100459.31;;;10.46;100.00
79690;BME280;69156;55.932;-3.238;2024-02-16T11:39:44;100464.28;;;10.48;100.00
79690;BME280;69156;55.932;-3.238;2024-02-16T11:42:11;100464.24;;;10.59;100.00
79690;BME280;69156;55.932;-3.238;2024-02-16T11:44:36;100469.93;;;10.69;100.00
79690;BME280;69156;55.932;-3.238;2024-02-16T11:47:03;100474.79;;;10.69;100.00
79690;BME280;69156;55.932;-3.238;2024-02-16T11:49:28;100480.43;;;10.77;100.00
79690;BME280;69156;55.932;-3.238;2024-02-16T11:51:54;100479.65;;;10.76;100.00
79690;BME280;69156;55.932;-3.238;2024-02-16T11:54:20;100480.65;;;11.02;100.00
79690;BME280;69156;55.932;-3.238;2024-02-16T11:56:45;100482.57;;;10.93;100.00
79690;BME280;69156;55.932;-3.238;2024-02-16T11:59:13;100480.54;;;10.72;100.00
79690;BME280;69156;55.932;-3.238;2024-02-16T12:01:58;100486.54;;;10.78;100.00
79690;BME280;69156;55.932;-3.238;2024-02-16T12:04:07;100492.73;;;10.96;100.00
79690;BME280;69156;55.932;-3.238;2024-02-16T12:06:32;100497.87;;;10.94;100.00
79690;BME280;69156;55.932;-3.238;2024-02-16T12:08:58;100494.97;;;10.87;100.00
79690;BME280;69156;55.932;-3.238;2024-02-16T12:11:27;100498.91;;;11.15;100.00
79690;BME280;69156;55.932;-3.238;2024-02-16T12:13:52;100499.82;;;11.11;100.00
79690;BME280;69156;55.932;-3.238;2024-02-16T12:16:21;100504.91;;;11.09;100.00
79690;BME280;69156;55.932;-3.238;2024-02-16T12:18:45;100507.43;;;11.00;100.00
79690;BME280;69156;55.932;-3.238;2024-02-16T12:21:10;100511.83;;;10.97;100.00
79690;BME280;69156;55.932;-3.238;2024-02-16T12:23:36;100514.12;;;11.18;100.00
79690;BME280;69156;55.932;-3.238;2024-02-16T12:26:02;100514.52;;;11.27;100.00
79690;BME280;69156;55.932;-3.238;2024-02-16T12:28:27;100515.01;;;11.43;100.00
79690;BME280;69156;55.932;-3.238;2024-02-16T12:30:52;100516.06;;;11.48;100.00
79690;BME280;69156;55.932;-3.238;2024-02-16T12:33:17;100516.69;;;11.54;100.00